Terminal Aerodrome Forecast
Issued by NWS Upton, NY

Home | Current Version | Previous Version | Text Only | Print | Product List | Glossary On
Versions: 1 2 3 4 5 6 7 8 9 10 11 12 13 14 15 16 17 18 19 20 21 22 23 24 25 26 27 28 29 30 31 32 33 34
066
FTUS41 KOKX 280708 AAA
TAFEWR
TAF AMD
KEWR 280708Z 2807/2912 VRB03KT 5SM BR BKN050
      TEMPO 2807/2808 BKN025
     FM280800 05004KT 4SM -RA BR OVC050
     FM281000 06004KT 1SM -RA BR OVC010
      TEMPO 2810/2814 2SM -RA BR OVC008
     FM281600 07004KT 1 1/2SM BR OVC008
     FM281900 06004KT 3SM -RA BR OVC010
     FM290000 03004KT 3SM -RA BR OVC008
     FM290400 36006KT 5SM BR OVC015
     FM290800 34008KT P6SM BKN025=

USA.gov is the U.S. government's official web portal to all federal, state and local government web resources and services.